Time,TemperatureF,DewpointF,PressureIn,WindDirection,WindDirectionDegrees,WindSpeedMPH,WindSpeedGustMPH,Humidity,HourlyPrecipIn,Conditions,Clouds,dailyrainin,SoftwareType,DateUTC
2013-06-02 00:00:00,74.5,64.9,30.07,NE,45,0.4,0.4,72,0.00,,,0.00,WUHU216HW,2013-06-02 04:00:00,
2013-06-02 00:01:00,74.5,64.9,30.07,NE,45,0.4,0.4,72,0.00,,,0.00,WUHU216HW,2013-06-02 04:01:00,
2013-06-02 00:06:00,74.5,64.9,30.07,NE,45,0.4,0.4,72,0.00,,,0.00,WUHU216HW,2013-06-02 04:06:00,
2013-06-02 00:30:00,74.2,65.0,30.06,SE,135,0.9,0.9,73,0.00,,,0.00,WUHU216HW,2013-06-02 04:30:00,
2013-06-02 00:35:00,74.2,65.0,30.06,SE,135,0.9,0.9,73,0.00,,,0.00,WUHU216HW,2013-06-02 04:35:00,
2013-06-02 01:00:00,73.8,64.6,30.06,WSW,248,0.4,0.4,73,0.00,,,0.00,WUHU216HW,2013-06-02 05:00:00,
2013-06-02 01:05:00,73.8,64.6,30.06,WSW,248,0.4,0.4,73,0.00,,,0.00,WUHU216HW,2013-06-02 05:05:00,
2013-06-02 01:30:00,73.6,64.4,30.06,SSE,158,1.3,1.3,73,0.00,,,0.00,WUHU216HW,2013-06-02 05:30:00,
2013-06-02 01:35:00,73.6,64.4,30.06,SSE,158,1.3,1.3,73,0.00,,,0.00,WUHU216HW,2013-06-02 05:35:00,
2013-06-02 02:00:00,73.3,64.2,30.05,SSW,203,0.7,0.7,73,0.00,,,0.00,WUHU216HW,2013-06-02 06:00:00,
2013-06-02 02:05:00,73.3,64.2,30.05,SSW,203,0.7,0.7,73,0.00,,,0.00,WUHU216HW,2013-06-02 06:05:00,
2013-06-02 02:30:00,72.9,63.8,30.04,ENE,68,0.7,0.7,73,0.00,,,0.00,WUHU216HW,2013-06-02 06:30:00,
2013-06-02 02:35:00,72.9,63.8,30.04,ENE,68,0.7,0.7,73,0.00,,,0.00,WUHU216HW,2013-06-02 06:35:00,
2013-06-02 03:00:00,72.4,63.6,30.02,North,0,0.0,0.0,74,0.00,,,0.00,WUHU216HW,2013-06-02 07:00:00,
2013-06-02 03:05:00,72.4,63.6,30.02,North,0,0.0,0.0,74,0.00,,,0.00,WUHU216HW,2013-06-02 07:05:00,
2013-06-02 03:30:00,71.6,62.9,30.01,North,0,0.2,0.2,74,0.00,,,0.00,WUHU216HW,2013-06-02 07:30:00,
2013-06-02 03:35:00,71.6,62.9,30.01,North,0,0.2,0.2,74,0.00,,,0.00,WUHU216HW,2013-06-02 07:35:00,
2013-06-02 04:00:00,71.5,63.1,30.01,SSW,203,0.4,0.4,75,0.00,,,0.00,WUHU216HW,2013-06-02 08:00:00,
2013-06-02 04:05:00,71.5,63.1,30.01,SSW,203,0.4,0.4,75,0.00,,,0.00,WUHU216HW,2013-06-02 08:05:00,
2013-06-02 04:30:00,70.7,62.7,30.01,SW,225,0.2,0.2,76,0.00,,,0.00,WUHU216HW,2013-06-02 08:30:00,
2013-06-02 04:35:00,70.7,62.7,30.01,SW,225,0.2,0.2,76,0.00,,,0.00,WUHU216HW,2013-06-02 08:35:00,
2013-06-02 05:00:00,70.4,62.7,30.01,ESE,113,0.4,0.4,77,0.00,,,0.00,WUHU216HW,2013-06-02 09:00:00,
2013-06-02 05:05:00,70.4,62.7,30.01,ESE,113,0.4,0.4,77,0.00,,,0.00,WUHU216HW,2013-06-02 09:05:00,
2013-06-02 05:30:00,70.0,63.2,30.01,NNW,338,0.4,0.4,79,0.00,,,0.00,WUHU216HW,2013-06-02 09:30:00,
2013-06-02 05:35:00,70.0,63.2,30.01,NNW,338,0.4,0.4,79,0.00,,,0.00,WUHU216HW,2013-06-02 09:35:00,
2013-06-02 06:00:00,69.7,63.2,30.03,SE,135,0.4,0.4,80,0.00,,,0.00,WUHU216HW,2013-06-02 10:00:00,
2013-06-02 06:05:00,69.7,63.2,30.03,SE,135,0.4,0.4,80,0.00,,,0.00,WUHU216HW,2013-06-02 10:05:00,
2013-06-02 06:30:00,69.7,63.9,30.03,WSW,248,1.1,1.1,82,0.00,,,0.00,WUHU216HW,2013-06-02 10:30:00,
2013-06-02 06:35:00,69.7,63.9,30.03,WSW,248,1.1,1.1,82,0.00,,,0.00,WUHU216HW,2013-06-02 10:35:00,
2013-06-02 07:00:00,69.8,64.1,30.04,SW,225,0.4,0.4,82,0.00,,,0.00,WUHU216HW,2013-06-02 11:00:00,
2013-06-02 07:05:00,69.8,64.1,30.04,SW,225,0.4,0.4,82,0.00,,,0.00,WUHU216HW,2013-06-02 11:05:00,
2013-06-02 07:30:00,70.2,64.5,30.02,SSW,203,1.8,1.8,82,0.00,,,0.00,WUHU216HW,2013-06-02 11:30:00,
2013-06-02 07:35:00,70.2,64.5,30.02,SSW,203,1.8,1.8,82,0.00,,,0.00,WUHU216HW,2013-06-02 11:35:00,
2013-06-02 08:00:00,70.7,65.0,30.03,West,270,0.4,0.4,82,0.00,,,0.00,WUHU216HW,2013-06-02 12:00:00,
2013-06-02 08:05:00,70.7,65.0,30.03,West,270,0.4,0.4,82,0.00,,,0.00,WUHU216HW,2013-06-02 12:05:00,
2013-06-02 08:30:00,71.8,65.7,30.05,North,0,2.5,2.5,81,0.00,,,0.00,WUHU216HW,2013-06-02 12:30:00,
2013-06-02 08:35:00,71.8,65.7,30.05,North,0,2.5,2.5,81,0.00,,,0.00,WUHU216HW,2013-06-02 12:35:00,
2013-06-02 09:00:00,72.5,66.1,30.05,NW,315,0.4,0.4,80,0.00,,,0.00,WUHU216HW,2013-06-02 13:00:00,
2013-06-02 09:05:00,72.5,66.1,30.05,NW,315,0.4,0.4,80,0.00,,,0.00,WUHU216HW,2013-06-02 13:05:00,
2013-06-02 09:30:00,73.8,66.6,30.03,SSW,203,1.1,1.1,78,0.00,,,0.00,WUHU216HW,2013-06-02 13:30:00,
2013-06-02 09:35:00,73.8,66.6,30.03,SSW,203,1.1,1.1,78,0.00,,,0.00,WUHU216HW,2013-06-02 13:35:00,
2013-06-02 10:00:00,74.9,66.9,30.04,SW,225,0.4,0.4,76,0.00,,,0.00,WUHU216HW,2013-06-02 14:00:00,
2013-06-02 10:05:00,74.9,66.9,30.04,SW,225,0.4,0.4,76,0.00,,,0.00,WUHU216HW,2013-06-02 14:05:00,
2013-06-02 10:30:00,76.0,66.7,30.04,ENE,68,1.1,1.1,73,0.00,,,0.00,WUHU216HW,2013-06-02 14:30:00,
2013-06-02 10:35:00,76.0,66.7,30.04,ENE,68,1.1,1.1,73,0.00,,,0.00,WUHU216HW,2013-06-02 14:35:00,
2013-06-02 11:00:00,77.4,67.0,30.04,West,270,1.1,1.1,70,0.00,,,0.00,WUHU216HW,2013-06-02 15:00:00,
2013-06-02 11:05:00,77.4,67.0,30.04,West,270,1.1,1.1,70,0.00,,,0.00,WUHU216HW,2013-06-02 15:05:00,
2013-06-02 11:30:00,79.0,68.0,30.04,SE,135,0.9,0.9,69,0.00,,,0.00,WUHU216HW,2013-06-02 15:30:00,
2013-06-02 11:35:00,79.0,68.0,30.04,SE,135,0.9,0.9,69,0.00,,,0.00,WUHU216HW,2013-06-02 15:35:00,
2013-06-02 12:00:00,80.6,68.2,30.03,ENE,68,1.8,1.8,66,0.00,,,0.00,WUHU216HW,2013-06-02 16:00:00,
2013-06-02 12:05:00,80.6,68.2,30.03,ENE,68,1.8,1.8,66,0.00,,,0.00,WUHU216HW,2013-06-02 16:05:00,
2013-06-02 12:30:00,83.2,69.7,30.03,NNE,23,1.1,1.1,64,0.00,,,0.00,WUHU216HW,2013-06-02 16:30:00,
2013-06-02 12:35:00,83.2,69.7,30.03,NNE,23,1.1,1.1,64,0.00,,,0.00,WUHU216HW,2013-06-02 16:35:00,
2013-06-02 13:00:00,84.6,69.8,30.02,North,0,1.8,1.8,61,0.00,,,0.00,WUHU216HW,2013-06-02 17:00:00,
2013-06-02 13:05:00,84.6,69.8,30.02,North,0,1.8,1.8,61,0.00,,,0.00,WUHU216HW,2013-06-02 17:05:00,
2013-06-02 13:30:00,86.0,69.5,30.02,WNW,293,1.1,1.1,58,0.00,,,0.00,WUHU216HW,2013-06-02 17:30:00,
2013-06-02 13:35:00,86.0,69.5,30.02,WNW,293,1.1,1.1,58,0.00,,,0.00,WUHU216HW,2013-06-02 17:35:00,
2013-06-02 14:00:00,85.3,69.4,30.02,North,0,0.4,0.4,59,0.00,,,0.00,WUHU216HW,2013-06-02 18:00:00,
2013-06-02 14:05:00,85.3,69.4,30.02,North,0,0.4,0.4,59,0.00,,,0.00,WUHU216HW,2013-06-02 18:05:00,
2013-06-02 14:30:00,85.3,69.9,30.01,North,0,1.3,1.3,60,0.00,,,0.00,WUHU216HW,2013-06-02 18:30:00,
2013-06-02 14:35:00,85.3,69.9,30.01,North,0,1.3,1.3,60,0.00,,,0.00,WUHU216HW,2013-06-02 18:35:00,
2013-06-02 15:00:00,85.5,68.5,30.00,WSW,248,0.9,0.9,57,0.00,,,0.00,WUHU216HW,2013-06-02 19:00:00,
2013-06-02 15:05:00,85.5,68.5,30.00,WSW,248,0.9,0.9,57,0.00,,,0.00,WUHU216HW,2013-06-02 19:05:00,
2013-06-02 15:30:00,88.0,69.9,29.99,East,90,0.7,0.7,55,0.00,,,0.00,WUHU216HW,2013-06-02 19:30:00,
2013-06-02 15:35:00,88.0,69.9,29.99,East,90,0.7,0.7,55,0.00,,,0.00,WUHU216HW,2013-06-02 19:35:00,
2013-06-02 16:00:00,87.5,69.8,29.98,SW,225,0.9,0.9,56,0.00,,,0.00,WUHU216HW,2013-06-02 20:00:00,
2013-06-02 16:05:00,87.5,69.8,29.98,SW,225,0.9,0.9,56,0.00,,,0.00,WUHU216HW,2013-06-02 20:05:00,
2013-06-02 16:30:00,86.8,69.1,29.97,NW,315,0.2,0.2,56,0.00,,,0.00,WUHU216HW,2013-06-02 20:30:00,
2013-06-02 16:35:00,86.8,69.1,29.97,NW,315,0.2,0.2,56,0.00,,,0.00,WUHU216HW,2013-06-02 20:35:00,
2013-06-02 17:00:00,85.9,68.9,29.95,ENE,68,1.3,1.3,57,0.00,,,0.00,WUHU216HW,2013-06-02 21:00:00,
2013-06-02 17:05:00,85.9,68.9,29.95,ENE,68,1.3,1.3,57,0.00,,,0.00,WUHU216HW,2013-06-02 21:05:00,
2013-06-02 17:30:00,85.0,68.6,29.95,North,0,0.0,0.0,58,0.00,,,0.00,WUHU216HW,2013-06-02 21:30:00,
2013-06-02 17:35:00,85.0,68.6,29.95,North,0,0.0,0.0,58,0.00,,,0.00,WUHU216HW,2013-06-02 21:35:00,
2013-06-02 18:00:00,84.1,68.2,29.95,SE,135,0.4,0.4,59,0.00,,,0.00,WUHU216HW,2013-06-02 22:00:00,
2013-06-02 18:05:00,84.1,68.2,29.95,SE,135,0.4,0.4,59,0.00,,,0.00,WUHU216HW,2013-06-02 22:05:00,
2013-06-02 18:30:00,83.2,68.3,29.94,ENE,68,0.0,0.0,61,0.00,,,0.00,WUHU216HW,2013-06-02 22:30:00,
2013-06-02 18:35:00,83.2,68.3,29.94,ENE,68,0.0,0.0,61,0.00,,,0.00,WUHU216HW,2013-06-02 22:35:00,
2013-06-02 19:00:00,82.4,68.0,29.95,South,180,0.0,0.0,62,0.00,,,0.00,WUHU216HW,2013-06-02 23:00:00,
2013-06-02 19:05:00,82.4,68.0,29.95,South,180,0.0,0.0,62,0.00,,,0.00,WUHU216HW,2013-06-02 23:05:00,
2013-06-02 19:30:00,81.5,68.1,29.95,South,180,0.0,0.0,64,0.00,,,0.00,WUHU216HW,2013-06-02 23:30:00,
2013-06-02 19:35:00,81.5,68.1,29.95,South,180,0.0,0.0,64,0.00,,,0.00,WUHU216HW,2013-06-02 23:35:00,
2013-06-02 20:00:00,80.8,68.4,29.96,South,180,0.0,0.0,66,0.00,,,0.00,WUHU216HW,2013-06-03 00:00:00,
2013-06-02 20:05:00,80.8,68.4,29.96,South,180,0.0,0.0,66,0.00,,,0.00,WUHU216HW,2013-06-03 00:05:00,
2013-06-02 20:30:00,80.1,68.1,29.96,North,0,0.4,0.4,67,0.00,,,0.00,WUHU216HW,2013-06-03 00:30:00,
2013-06-02 20:35:00,80.1,68.1,29.96,North,0,0.4,0.4,67,0.00,,,0.00,WUHU216HW,2013-06-03 00:35:00,
2013-06-02 21:00:00,77.8,68.1,29.96,NNE,23,0.9,0.9,72,0.00,,,0.00,WUHU216HW,2013-06-03 01:00:00,
2013-06-02 21:05:00,77.8,68.1,29.96,NNE,23,0.9,0.9,72,0.00,,,0.00,WUHU216HW,2013-06-03 01:05:00,
2013-06-02 21:30:00,76.7,67.4,29.96,North,0,0.2,0.2,73,0.00,,,0.00,WUHU216HW,2013-06-03 01:30:00,
2013-06-02 21:35:00,76.7,67.4,29.96,North,0,0.2,0.2,73,0.00,,,0.00,WUHU216HW,2013-06-03 01:35:00,
2013-06-02 22:00:00,74.2,67.7,29.95,North,0,0.4,0.4,80,0.18,,,0.00,WUHU216HW,2013-06-03 02:00:00,
2013-06-02 22:05:00,74.2,67.7,29.95,North,0,0.4,0.4,80,0.18,,,0.00,WUHU216HW,2013-06-03 02:05:00,
2013-06-02 22:30:00,73.8,68.3,29.97,North,0,0.0,0.0,83,0.18,,,0.19,WUHU216HW,2013-06-03 02:30:00,
2013-06-02 22:35:00,73.8,68.3,29.97,North,0,0.0,0.0,83,0.18,,,0.19,WUHU216HW,2013-06-03 02:35:00,
2013-06-02 23:00:00,73.4,68.3,29.98,NNE,23,0.0,0.0,84,0.00,,,0.19,WUHU216HW,2013-06-03 03:00:00,
2013-06-02 23:05:00,73.4,68.3,29.98,NNE,23,0.0,0.0,84,0.00,,,0.19,WUHU216HW,2013-06-03 03:05:00,
2013-06-02 23:30:00,73.6,68.5,30.00,North,0,0.0,0.0,84,0.10,,,0.19,WUHU216HW,2013-06-03 03:30:00,
2013-06-02 23:35:00,73.6,68.5,30.00,North,0,0.0,0.0,84,0.10,,,0.19,WUHU216HW,2013-06-03 03:35:00,